首页
METAR-TAF:

METAR-TAF

机场 :

Chautauqua County/Jamestown Airport

Jamestown, 紐約州, 美国

纬度: 42-09N, 经度: 079-16W, 海拔: 525米

当前天气观测

该预报发布于18分钟前的04:56 UTC
风速8节,风向西
温度 2°C
湿度 60%
气压 1014 hPa
能見度: 16.1公里
天空无云

METAR: KJHW 020456Z AUTO 27008KT 10SM CLR 02/M05 A2994 RMK AO2 SLP156 T00171050 400670011 FZRANO

时间: 01:14 (05:14 UTC)

预报

该预报发布于5小时和54分钟前的23:20 UTC
预报有效从02日的 00点(UTC)到 02日的 24点(UTC)
风速8节,风向
能見度: 10公里
散云层高于7000英尺
从 02日的 0400点(UTC)
风速6节,风向西北
能見度: 10公里
散云层高于7000英尺
从 02日的 0900点(UTC)
风速6节,风向西北
能見度: 10公里
多云层高于4000英尺
从 02日的 1500点(UTC)
风速12节,风向北转西北,有时为20节阵风
能見度: 10公里
散云层高于4000英尺
从 02日的 2300点(UTC)
风速10节,风向西转西北
能見度: 10公里
散云层高于4000英尺

TAF: KJHW 012320Z 0200/0224 35008KT P6SM SCT070 FM020400 31006KT P6SM SCT070 FM020900 31006KT P6SM BKN040 FM021500 33012G20KT P6SM SCT040 FM022300 30010KT P6SM SCT040

超过4000个机场的气象观测和天气预报(METAR&TAF报告)。

可查询的气象台以黄色和红色小点在地图上表示。

将鼠标移到小点上方,可查看气象台名称。

然后点击查看天气观测和预报。

如需切换地图:点击带黑十字的绿色按钮放大地图;点击带横线的绿色按钮缩小地图;或者点击绿色箭头查看邻近地区的地图。


METAR-TAF: